Time;durP1;ratioP1;P1;durP2;ratioP2;P2;SDS_P1;SDS_P2;PMS_P1;PMS_P2;Temp;Humidity;BMP_temperature;BMP_pressure;BME280_temperature;BME280_humidity;BME280_pressure;Samples;Min_cycle;Max_cycle;Signal;HPM_P1;HPM_P2
2023/10/10 00:02:18;;;;;;;31.15;13.30;;;;;;;18.80;100.00;101215.91;4835750;29;20046;-68
2023/10/10 00:04:49;;;;;;;25.77;13.00;;;;;;;18.77;100.00;101216.56;4836376;29;20060;-68
2023/10/10 00:07:18;;;;;;;25.33;12.23;;;;;;;18.71;100.00;101212.31;4835516;29;20786;-68
2023/10/10 00:09:47;;;;;;;22.52;11.45;;;;;;;18.73;100.00;101216.34;4820675;29;20065;-68
2023/10/10 00:12:25;;;;;;;26.02;11.95;;;;;;;18.77;100.00;101216.56;4836136;29;20050;-68
2023/10/10 00:14:56;;;;;;;26.75;11.05;;;;;;;18.74;100.00;101222.72;4836113;29;20061;-68
2023/10/10 00:17:34;;;;;;;28.80;11.95;;;;;;;18.84;100.00;101221.63;4835880;29;20054;-68
2023/10/10 00:20:21;;;;;;;23.63;11.00;;;;;;;18.88;100.00;101228.16;4819640;29;20051;-70
2023/10/10 00:22:58;;;;;;;32.10;12.73;;;;;;;18.83;100.00;101220.81;4836412;29;20059;-70
2023/10/10 00:25:36;;;;;;;25.50;11.27;;;;;;;18.78;100.00;101223.75;4834742;29;20066;-67
2023/10/10 00:28:17;;;;;;;27.80;12.93;;;;;;;18.73;100.00;101227.44;4827195;29;20067;-68
2023/10/10 00:30:45;;;;;;;28.35;14.25;;;;;;;18.67;100.00;101220.41;4836067;29;20057;-68
2023/10/10 00:33:17;;;;;;;28.85;13.60;;;;;;;18.59;100.00;101221.19;4819069;29;20498;-68
2023/10/10 00:35:47;;;;;;;29.17;13.32;;;;;;;18.61;100.00;101219.75;4835878;29;20060;-68
2023/10/10 00:38:24;;;;;;;28.98;12.35;;;;;;;18.78;100.00;101213.44;4819641;29;20046;-68
2023/10/10 00:40:54;;;;;;;22.25;10.55;;;;;;;18.82;100.00;101212.81;4835856;29;20057;-68
2023/10/10 00:43:24;;;;;;;25.05;10.23;;;;;;;18.80;100.00;101213.97;4819848;29;20057;-68
2023/10/10 00:45:52;;;;;;;20.25;10.13;;;;;;;18.72;100.00;101220.28;4835154;29;20054;-68
2023/10/10 00:48:22;;;;;;;18.83;9.15;;;;;;;18.69;100.00;101206.25;4819598;29;20169;-68
2023/10/10 00:50:53;;;;;;;24.40;9.20;;;;;;;18.62;100.00;101201.19;4835208;29;20058;-68
2023/10/10 00:53:22;;;;;;;21.27;8.20;;;;;;;18.50;100.00;101202.59;4830049;29;20058;-68
2023/10/10 00:55:57;;;;;;;17.95;8.77;;;;;;;18.48;100.00;101191.00;4835534;29;20050;-68
2023/10/10 00:58:35;;;;;;;22.27;8.13;;;;;;;18.45;100.00;101185.28;4819422;29;20069;-68
2023/10/10 01:01:14;;;;;;;24.05;8.40;;;;;;;18.49;100.00;101195.41;4836474;29;20046;-68
2023/10/10 01:03:46;;;;;;;18.10;7.63;;;;;;;18.60;100.00;101189.56;4835691;29;20057;-68
2023/10/10 01:06:39;;;;;;;24.67;7.43;;;;;;;18.65;100.00;101187.50;4835997;29;20050;-69
2023/10/10 01:09:21;;;;;;;17.50;7.00;;;;;;;18.59;100.00;101190.72;4823174;29;20038;-68
2023/10/10 01:11:53;;;;;;;15.10;7.07;;;;;;;18.47;100.00;101194.09;4822101;29;20070;-68
2023/10/10 01:14:26;;;;;;;19.27;7.47;;;;;;;18.36;100.00;101188.00;4822329;29;20054;-68
2023/10/10 01:16:55;;;;;;;;;;;;;;;18.30;100.00;101183.72;4823636;29;20058;-68
2023/10/10 01:19:28;;;;;;;14.90;7.43;;;;;;;18.25;100.00;101188.28;4838699;29;19936;-68
2023/10/10 01:21:59;;;;;;;13.65;6.70;;;;;;;18.35;100.00;101197.44;4823281;29;20042;-68
2023/10/10 01:24:30;;;;;;;14.45;6.95;;;;;;;18.37;100.00;101200.72;4838535;29;20085;-68
2023/10/10 01:27:15;;;;;;;17.92;6.07;;;;;;;18.36;100.00;101199.91;4821406;29;20062;-69
2023/10/10 01:29:50;;;;;;;19.48;6.40;;;;;;;18.32;100.00;101185.06;4823137;29;20042;-68
2023/10/10 01:32:21;;;;;;;14.52;5.47;;;;;;;18.28;100.00;101189.59;4821969;29;20058;-68
2023/10/10 01:34:49;;;;;;;15.63;6.57;;;;;;;18.24;100.00;101196.91;4838765;29;20046;-68
2023/10/10 01:40:16;;;;;;;14.57;5.75;;;;;;;18.49;100.00;101200.13;4822688;29;20050;-68
2023/10/10 01:43:07;;;;;;;19.65;7.13;;;;;;;18.41;100.00;101193.41;4816895;29;20069;-68
2023/10/10 01:45:41;;;;;;;15.73;7.03;;;;;;;18.26;100.00;101175.25;4820496;29;20058;-68
2023/10/10 01:48:11;;;;;;;16.95;7.10;;;;;;;18.12;100.00;101178.09;4836730;29;20064;-68
2023/10/10 01:50:39;;;;;;;17.52;7.03;;;;;;;18.13;100.00;101180.56;4822776;29;20068;-68
2023/10/10 01:53:09;;;;;;;19.23;7.85;;;;;;;18.08;100.00;101171.56;4822602;29;20050;-68
2023/10/10 01:55:37;;;;;;;23.00;7.88;;;;;;;18.01;100.00;101180.28;4837664;29;20405;-68
2023/10/10 01:58:11;;;;;;;22.42;7.93;;;;;;;18.07;100.00;101189.31;4821522;29;20066;-68
2023/10/10 02:00:43;;;;;;;18.15;7.82;;;;;;;18.13;100.00;101183.31;4821505;29;20058;-68
2023/10/10 02:03:11;;;;;;;18.63;6.90;;;;;;;18.08;100.00;101185.44;4821389;29;20054;-68
2023/10/10 02:08:17;;;;;;;16.65;6.93;;;;;;;17.92;100.00;101185.78;4837549;29;20058;-68
2023/10/10 02:10:49;;;;;;;18.00;7.50;;;;;;;17.89;100.00;101193.91;4821523;29;20051;-68
2023/10/10 02:13:18;;;;;;;15.70;6.95;;;;;;;17.81;100.00;101199.06;4821708;29;20054;-69
2023/10/10 02:15:51;;;;;;;15.35;7.13;;;;;;;17.83;100.00;101190.41;4838108;29;20042;-68
2023/10/10 02:18:37;;;;;;;20.58;6.18;;;;;;;17.79;100.00;101186.66;4821676;29;20058;-68
2023/10/10 02:21:15;;;;;;;16.15;6.68;;;;;;;17.76;100.00;101184.50;4837702;29;20050;-68
2023/10/10 02:23:46;;;;;;;19.27;6.65;;;;;;;17.74;100.00;101179.28;4836625;29;20084;-68
2023/10/10 02:26:23;;;;;;;17.77;6.72;;;;;;;17.65;100.00;101179.22;4820755;29;20046;-68
2023/10/10 02:29:16;;;;;;;20.35;7.18;;;;;;;17.63;100.00;101175.13;4838955;29;20070;-68
2023/10/10 02:31:42;;;;;;;15.50;6.80;;;;;;;17.58;100.00;101181.59;4837262;29;20505;-68
2023/10/10 02:34:11;;;;;;;16.73;6.68;;;;;;;17.56;100.00;101184.69;4837896;29;20038;-68
2023/10/10 02:36:41;;;;;;;13.95;7.35;;;;;;;17.57;100.00;101191.88;4837182;29;20049;-68
2023/10/10 02:39:27;;;;;;;18.75;7.13;;;;;;;17.56;100.00;101189.41;4837623;29;20058;-68
2023/10/10 02:42:01;;;;;;;15.02;6.80;;;;;;;17.54;100.00;101192.50;4833066;29;20062;-68
2023/10/10 02:47:02;;;;;;;19.48;7.63;;;;;;;17.57;100.00;101194.63;4828945;29;19925;-68
2023/10/10 02:49:30;;;;;;;19.85;8.07;;;;;;;17.58;100.00;101196.28;4809390;29;20061;-68
2023/10/10 02:52:06;;;;;;;19.80;7.80;;;;;;;17.56;100.00;101189.41;4821858;29;20047;-68
2023/10/10 02:54:35;;;;;;;19.15;8.27;;;;;;;17.58;100.00;101189.91;4827674;29;20419;-68
2023/10/10 02:59:59;;;;;;;22.80;9.00;;;;;;;17.50;100.00;101174.88;4827014;29;20062;-68
2023/10/10 03:02:40;;;;;;;20.13;8.07;;;;;;;17.42;100.00;101181.97;4821224;29;20062;-68
2023/10/10 03:05:16;;;;;;;16.40;7.40;;;;;;;17.41;100.00;101177.56;4820383;29;20046;-68
2023/10/10 03:07:52;;;;;;;21.77;7.38;;;;;;;17.44;100.00;101181.66;4836788;29;20066;-68
2023/10/10 03:10:37;;;;;;;24.38;8.55;;;;;;;17.43;100.00;101183.63;4819976;29;20034;-68
2023/10/10 03:13:27;;;;;;;17.95;8.52;;;;;;;17.54;100.00;101189.72;4820972;29;20023;-68
2023/10/10 03:16:40;;;;;;;21.80;8.30;;;;;;;17.44;100.00;101185.25;4836380;29;20058;-68
2023/10/10 03:24:15;;;;;;;;;;;;;;;17.35;100.00;101181.56;4837294;29;20066;-68
2023/10/10 03:29:26;;;;;;;22.23;9.13;;;;;;;17.41;100.00;101191.38;4821463;29;20042;-68
2023/10/10 03:32:21;;;;;;;21.83;9.13;;;;;;;17.51;100.00;101190.34;4821133;29;20055;-68
2023/10/10 03:34:44;;;;;;;19.77;9.40;;;;;;;17.53;100.00;101192.78;4837450;29;20035;-68
2023/10/10 03:37:30;;;;;;;24.27;9.20;;;;;;;17.56;100.00;101197.72;4826015;29;20058;-68
2023/10/10 03:40:09;;;;;;;18.73;9.45;;;;;;;17.53;100.00;101193.63;4803867;29;20070;-68
2023/10/10 05:25:51;;;;;;;17.95;7.72;;;;;;;16.15;100.00;101207.13;4827107;29;20047;-71
2023/10/10 05:28:22;;;;;;;19.37;8.17;;;;;;;16.17;100.00;101210.44;4773390;29;1603844;-70
2023/10/10 05:30:55;;;;;;;18.63;7.65;;;;;;;16.17;100.00;101207.66;4825648;29;20067;-70
2023/10/10 05:33:26;;;;;;;14.80;6.88;;;;;;;16.18;100.00;101206.53;4827557;29;20104;-70
2023/10/10 05:35:59;;;;;;;16.65;6.88;;;;;;;16.15;100.00;101216.25;4826402;29;20062;-71
2023/10/10 05:38:28;;;;;;;19.37;7.37;;;;;;;16.14;100.00;101214.63;4827691;29;20059;-71
2023/10/10 05:40:57;;;;;;;18.83;7.10;;;;;;;16.21;100.00;101223.31;4827093;29;20064;-77
2023/10/10 05:43:33;;;;;;;19.10;7.43;;;;;;;16.56;100.00;101230.47;4794496;29;20054;-77
2023/10/10 05:46:08;;;;;;;18.25;6.50;;;;;;;16.91;100.00;101231.69;4790115;29;20063;-77
2023/10/10 05:48:37;;;;;;;21.85;6.75;;;;;;;17.22;100.00;101243.28;4797458;29;20050;-76
2023/10/10 05:51:10;;;;;;;21.13;7.43;;;;;;;17.46;100.00;101227.25;4789038;29;20065;-77
2023/10/10 05:53:40;;;;;;;19.08;7.28;;;;;;;17.66;100.00;101235.41;4785061;29;20057;-77
2023/10/10 05:56:12;;;;;;;14.32;7.13;;;;;;;17.85;100.00;101236.03;4795782;29;20059;-77
2023/10/10 05:58:43;;;;;;;15.02;7.35;;;;;;;17.88;100.00;101233.78;4799335;29;20058;-78
2023/10/10 06:01:13;;;;;;;15.05;6.90;;;;;;;17.87;100.00;101232.97;4809952;29;21980;-77
2023/10/10 06:03:47;;;;;;;14.98;6.63;;;;;;;17.97;100.00;101241.03;4786077;29;20066;-79
2023/10/10 06:06:18;;;;;;;16.90;7.00;;;;;;;18.06;100.00;101231.97;4784310;29;20070;-77
2023/10/10 06:08:47;;;;;;;17.20;7.35;;;;;;;18.03;100.00;101243.69;4790606;29;20058;-76
2023/10/10 06:11:16;;;;;;;16.92;7.25;;;;;;;18.10;100.00;101241.31;4784350;29;20061;-79
2023/10/10 06:13:46;;;;;;;15.82;6.82;;;;;;;18.19;100.00;101247.72;4797160;29;20757;-75
2023/10/10 06:16:15;;;;;;;20.33;7.10;;;;;;;18.36;99.84;101252.56;4795304;29;20171;-77
2023/10/10 06:18:47;;;;;;;16.25;7.80;;;;;;;18.43;99.77;101273.47;4800360;29;20430;-74
2023/10/10 06:21:18;;;;;;;18.77;7.32;;;;;;;18.51;99.41;101261.59;4800876;29;20057;-75
2023/10/10 06:23:49;;;;;;;20.73;7.32;;;;;;;18.46;99.71;101265.31;4786243;29;20050;-77
2023/10/10 06:26:21;;;;;;;17.25;8.82;;;;;;;18.55;99.63;101265.38;4797654;29;20074;-78
2023/10/10 06:28:53;;;;;;;20.58;8.40;;;;;;;18.59;99.36;101269.16;4784780;29;20042;-77
2023/10/10 06:31:33;;;;;;;17.70;8.50;;;;;;;18.74;99.19;101272.63;4800333;29;20065;-76
2023/10/10 06:34:19;;;;;;;23.80;8.38;;;;;;;18.82;98.36;101274.63;4787789;29;20050;-77
2023/10/10 06:36:51;;;;;;;22.15;8.95;;;;;;;18.92;97.74;101268.00;4798261;29;20039;-78
2023/10/10 06:39:21;;;;;;;15.38;8.18;;;;;;;18.81;98.41;101264.66;4789354;29;20077;-79
2023/10/10 06:41:50;;;;;;;18.08;9.18;;;;;;;18.96;97.95;101273.72;4804994;29;20042;-76
2023/10/10 06:44:32;;;;;;;21.58;9.70;;;;;;;19.00;98.34;101267.19;4788723;29;20057;-78
2023/10/10 06:47:08;;;;;;;20.55;9.85;;;;;;;19.14;98.14;101267.13;4790364;29;20061;-76
2023/10/10 06:49:46;;;;;;;29.00;10.38;;;;;;;19.20;98.14;101274.16;4805710;29;20062;-77
2023/10/10 06:52:18;;;;;;;20.52;9.77;;;;;;;19.38;97.25;101271.41;4791584;29;20054;-77
2023/10/10 06:54:53;;;;;;;19.23;9.52;;;;;;;19.38;97.94;101262.25;4790413;29;20061;-76
2023/10/10 06:57:35;;;;;;;19.77;10.00;;;;;;;19.45;97.90;101262.59;4803793;29;20050;-77
2023/10/10 07:00:21;;;;;;;19.70;10.13;;;;;;;19.59;97.34;101273.56;4794603;29;20055;-77
2023/10/10 07:02:53;;;;;;;23.90;11.00;;;;;;;19.64;98.12;101272.59;4802715;29;20065;-77
2023/10/10 07:05:33;;;;;;;23.95;11.15;;;;;;;19.50;100.00;101276.31;4804672;29;20065;-77
2023/10/10 07:08:13;;;;;;;24.08;11.50;;;;;;;19.66;99.23;101270.31;4797573;29;20070;-77
2023/10/10 07:10:45;;;;;;;22.60;11.43;;;;;;;19.76;98.56;101286.66;4783158;29;20077;-76
2023/10/10 07:13:14;;;;;;;27.00;10.93;;;;;;;19.83;98.47;101289.75;4785374;29;20061;-77
2023/10/10 07:15:53;;;;;;;22.08;11.50;;;;;;;19.85;100.00;101287.47;4795620;29;20050;-77
2023/10/10 07:18:25;;;;;;;25.80;11.85;;;;;;;19.98;98.94;101288.47;4782908;29;20058;-77
2023/10/10 07:21:26;;;;;;;29.30;12.30;;;;;;;19.99;99.46;101292.09;4782620;29;20058;-79
2023/10/10 07:24:13;;;;;;;21.75;9.95;;;;;;;20.13;96.71;101278.81;4797747;29;20074;-76
2023/10/10 07:26:44;;;;;;;26.20;12.10;;;;;;;20.38;94.54;101295.78;4783819;29;20552;-77
2023/10/10 07:29:30;;;;;;;27.33;11.95;;;;;;;20.42;95.63;101284.81;4783586;29;20057;-77
2023/10/10 07:32:17;;;;;;;26.10;11.70;;;;;;;20.38;95.81;101293.00;4783589;29;20058;-79
2023/10/10 07:34:54;;;;;;;23.10;10.85;;;;;;;20.55;94.37;101285.78;4783228;29;20069;-77
2023/10/10 07:37:23;;;;;;;23.35;10.55;;;;;;;20.61;93.95;101300.31;4769488;29;20066;-79
2023/10/10 07:42:39;;;;;;;26.95;12.48;;;;;;;20.73;93.62;101296.84;4799558;29;20066;-78
2023/10/10 07:45:15;;;;;;;26.83;11.23;;;;;;;20.81;92.76;101299.59;4794192;29;20060;-77
2023/10/10 07:50:35;;;;;;;25.27;11.20;;;;;;;21.25;92.47;101311.72;4798903;29;20061;-78
2023/10/10 07:53:12;;;;;;;27.45;11.98;;;;;;;21.35;92.54;101305.75;4798264;29;20054;-80
2023/10/10 07:55:52;;;;;;;28.27;12.63;;;;;;;21.43;90.15;101304.91;4797723;29;20062;-79
2023/10/10 07:58:23;;;;;;;26.73;12.40;;;;;;;21.42;92.83;101308.03;4782555;29;20051;-77
2023/10/10 08:01:16;;;;;;;36.35;15.10;;;;;;;21.45;93.11;101298.97;4787159;29;20057;-77
2023/10/10 08:03:47;;;;;;;30.37;12.97;;;;;;;21.62;89.86;101310.00;4786158;29;20058;-76
2023/10/10 08:06:27;;;;;;;40.10;15.68;;;;;;;21.68;89.48;101313.44;4798446;29;20039;-75
2023/10/10 08:11:45;;;;;;;33.40;15.27;;;;;;;21.83;88.04;101308.41;4798372;29;20086;-75
2023/10/10 08:14:17;;;;;;;39.50;16.30;;;;;;;21.83;89.92;101314.00;4788216;29;20046;-76
2023/10/10 08:16:46;;;;;;;37.95;15.95;;;;;;;21.84;90.48;101307.25;4783251;29;20046;-76
2023/10/10 08:19:15;;;;;;;37.97;14.82;;;;;;;21.88;88.50;101317.41;4789839;29;20050;-74
2023/10/10 08:21:50;;;;;;;30.67;16.55;;;;;;;21.90;90.62;101311.50;4797094;29;20054;-79
2023/10/10 08:24:19;;;;;;;39.80;18.40;;;;;;;21.94;92.51;101315.22;4781698;29;20070;-76
2023/10/10 08:26:51;;;;;;;32.60;16.50;;;;;;;22.02;88.54;101319.09;4791990;29;20078;-75
2023/10/10 08:29:25;;;;;;;39.78;17.25;;;;;;;22.23;87.87;101319.06;4788112;29;20038;-77
2023/10/10 08:31:54;;;;;;;34.05;16.17;;;;;;;22.31;87.23;101306.22;4795778;29;20066;-75
2023/10/10 08:34:24;;;;;;;35.50;15.65;;;;;;;22.36;87.17;101307.97;4799165;29;20062;-77
2023/10/10 08:37:02;;;;;;;31.25;15.32;;;;;;;22.46;86.45;101324.28;4798234;29;20038;-74
2023/10/10 08:39:39;;;;;;;36.97;16.40;;;;;;;22.40;88.04;101303.34;4783921;29;20058;-77
2023/10/10 08:42:14;;;;;;;42.55;18.60;;;;;;;22.43;88.67;101308.22;4784633;29;20061;-76
2023/10/10 08:44:53;;;;;;;40.17;17.33;;;;;;;22.48;88.79;101308.00;4782602;29;20054;-75
2023/10/10 08:47:32;;;;;;;33.85;15.93;;;;;;;22.55;86.29;101301.91;4782510;29;20073;-75
2023/10/10 08:50:03;;;;;;;34.83;16.80;;;;;;;22.67;89.72;101303.88;4784943;29;20062;-74
2023/10/10 08:52:33;;;;;;;35.35;16.95;;;;;;;22.69;88.97;101299.59;4783436;29;20054;-75
2023/10/10 08:55:02;;;;;;;42.20;16.83;;;;;;;22.75;86.75;101293.78;4783829;29;20065;-76
2023/10/10 08:57:37;;;;;;;42.40;19.58;;;;;;;22.78;90.02;101296.69;4781700;29;20035;-77
2023/10/10 09:00:11;;;;;;;36.47;17.88;;;;;;;22.80;88.09;101294.41;4800260;29;20070;-76
2023/10/10 09:02:41;;;;;;;37.47;17.67;;;;;;;22.82;87.91;101292.06;4787160;29;20053;-77
2023/10/10 09:05:14;;;;;;;41.92;20.27;;;;;;;22.80;90.33;101288.00;4798035;29;20062;-75
2023/10/10 09:07:43;;;;;;;39.53;19.08;;;;;;;22.97;88.21;101292.53;4782804;29;20094;-75
2023/10/10 09:10:16;;;;;;;40.80;17.58;;;;;;;23.08;86.82;101287.31;4796629;29;20061;-75
2023/10/10 09:12:58;;;;;;;40.20;18.60;;;;;;;23.19;87.54;101296.84;4790542;29;20059;-75
2023/10/10 09:15:34;;;;;;;43.83;19.35;;;;;;;23.25;88.94;101286.25;4782629;29;20038;-75
2023/10/10 09:18:16;;;;;;;42.00;19.90;;;;;;;23.38;89.72;101298.25;4790627;29;20070;-78
2023/10/10 09:20:45;;;;;;;37.72;19.98;;;;;;;23.48;86.91;101294.16;4797615;29;20070;-77
2023/10/10 09:23:23;;;;;;;30.98;18.33;;;;;;;23.48;85.92;101288.59;4796854;29;20066;-74
2023/10/10 09:28:55;;;;;;;33.53;18.35;;;;;;;23.69;86.89;101282.00;4802220;29;20049;-76
2023/10/10 09:31:31;;;;;;;42.30;19.77;;;;;;;23.71;87.82;101283.28;4804628;29;20058;-77
2023/10/10 09:34:06;;;;;;;41.10;20.75;;;;;;;23.76;87.44;101287.84;4789814;29;20635;-75
2023/10/10 09:36:50;;;;;;;42.05;20.88;;;;;;;23.82;89.08;101280.81;4805593;29;20073;-77
2023/10/10 09:39:36;;;;;;;40.47;21.45;;;;;;;23.92;87.68;101285.09;4800385;29;20075;-76
2023/10/10 09:47:43;;;;;;;35.97;19.25;;;;;;;24.02;84.63;101273.41;4808667;29;20089;-76
2023/10/10 09:52:58;;;;;;;37.45;18.85;;;;;;;24.09;84.74;101272.03;4802676;29;20057;-76
2023/10/10 09:58:16;;;;;;;;;;;;;;;24.22;83.33;101272.75;4803499;29;20058;-77
2023/10/10 10:00:46;;;;;;;40.58;21.02;;;;;;;24.19;85.14;101271.47;4797311;29;19932;-76
2023/10/10 10:06:19;;;;;;;41.13;22.25;;;;;;;24.53;85.18;101265.56;4804664;29;20058;-76
2023/10/10 10:09:32;;;;;;;40.65;20.48;;;;;;;24.58;83.03;101265.31;4797556;29;20054;-76
2023/10/10 10:12:30;;;;;;;40.88;21.15;;;;;;;24.66;81.88;101267.13;4801743;29;20058;-76
2023/10/10 10:15:28;;;;;;;43.25;20.88;;;;;;;24.78;82.92;101274.63;4791622;29;20065;-76
2023/10/10 10:18:26;;;;;;;40.63;21.50;;;;;;;24.72;83.51;101269.69;4790816;29;20069;-77
2023/10/10 10:21:16;;;;;;;45.30;22.08;;;;;;;24.79;82.73;101261.44;4798689;29;20066;-76
2023/10/10 10:23:55;;;;;;;40.28;22.45;;;;;;;24.92;81.66;101268.59;4801766;29;20054;-76
2023/10/10 10:26:42;;;;;;;40.72;21.27;;;;;;;24.93;81.91;101270.22;4804160;29;20073;-76
2023/10/10 10:29:22;;;;;;;45.00;23.92;;;;;;;24.90;81.73;101259.75;4813889;29;20074;-77
2023/10/10 10:31:57;;;;;;;46.65;23.58;;;;;;;25.12;82.29;101265.84;4784280;29;20066;-76
2023/10/10 10:37:13;;;;;;;42.35;22.40;;;;;;;25.25;80.57;101268.53;4798038;29;20058;-77
2023/10/10 10:40:23;;;;;;;44.90;21.95;;;;;;;25.22;79.82;101264.50;4794600;29;20069;-77
2023/10/10 10:42:38;;;;;;;46.17;22.95;;;;;;;25.32;79.42;101257.53;4798058;29;20058;-77
2023/10/10 10:45:37;;;;;;;44.28;22.70;;;;;;;25.41;79.70;101262.91;4813765;29;20067;-77
2023/10/10 10:48:29;;;;;;;45.05;22.10;;;;;;;25.41;78.32;101269.31;4798413;29;20643;-77
2023/10/10 10:51:06;;;;;;;39.05;20.65;;;;;;;25.49;76.57;101257.13;4783483;29;20058;-76
2023/10/10 10:53:38;;;;;;;42.10;21.05;;;;;;;25.50;76.98;101257.91;4786487;29;20072;-77
2023/10/10 11:01:30;;;;;;;40.20;21.33;;;;;;;25.80;76.09;101243.34;4813090;29;20054;-76
2023/10/10 11:03:59;;;;;;;41.58;21.92;;;;;;;25.94;74.73;101248.44;4799526;29;20069;-77
2023/10/10 11:06:30;;;;;;;43.05;22.80;;;;;;;25.83;74.21;101244.59;4814026;29;20062;-78
2023/10/10 11:09:23;;;;;;;41.70;20.25;;;;;;;25.94;73.82;101242.03;4797935;29;20046;-77
2023/10/10 11:11:58;;;;;;;41.08;22.00;;;;;;;26.13;74.35;101233.59;4783264;29;20046;-77
2023/10/10 11:14:44;;;;;;;44.17;20.10;;;;;;;26.31;72.83;101244.34;4784392;29;20051;-77
2023/10/10 11:17:18;;;;;;;46.63;22.77;;;;;;;26.33;72.10;101229.97;4784790;29;20058;-77
2023/10/10 11:19:53;;;;;;;51.75;24.40;;;;;;;26.51;72.92;101225.47;4801912;29;20046;-77
2023/10/10 11:22:39;;;;;;;38.95;22.02;;;;;;;26.44;70.61;101225.31;4787080;29;20066;-77
2023/10/10 11:25:11;;;;;;;43.97;21.10;;;;;;;26.49;71.78;101210.19;4782908;29;20058;-77
2023/10/10 11:27:44;;;;;;;47.53;22.43;;;;;;;26.74;71.15;101215.41;4781028;29;20066;-77
2023/10/10 11:30:24;;;;;;;41.80;21.42;;;;;;;26.85;70.13;101207.97;4799573;29;20327;-77
2023/10/10 11:33:16;;;;;;;42.05;21.83;;;;;;;26.84;69.72;101212.75;4783063;29;20069;-77
2023/10/10 11:35:48;;;;;;;41.75;22.08;;;;;;;26.72;69.88;101206.56;4798264;29;20067;-77
2023/10/10 11:38:34;;;;;;;43.80;22.25;;;;;;;26.52;70.00;101201.00;4797933;29;20141;-77
2023/10/10 11:41:09;;;;;;;40.35;22.20;;;;;;;26.42;70.24;101192.06;4797880;29;20619;-77
2023/10/10 11:44:01;;;;;;;42.20;23.83;;;;;;;26.18;70.75;101196.00;4783448;29;20077;-77
2023/10/10 11:46:30;;;;;;;44.83;23.45;;;;;;;26.09;71.56;101189.84;4796871;29;20049;-77
2023/10/10 11:49:00;;;;;;;44.30;22.05;;;;;;;26.19;71.91;101192.00;4796698;29;20051;-77
2023/10/10 11:51:34;;;;;;;44.25;22.80;;;;;;;26.09;71.50;101181.44;4784794;29;20038;-77
2023/10/10 11:54:03;;;;;;;45.33;22.75;;;;;;;26.19;71.63;101186.41;4784014;29;20058;-77
2023/10/10 11:56:34;;;;;;;40.80;21.38;;;;;;;26.49;70.66;101177.31;4785556;29;20427;-77
2023/10/10 11:59:14;;;;;;;41.58;21.63;;;;;;;26.53;69.67;101175.38;4797284;29;20054;-77
2023/10/10 12:04:47;;;;;;;45.35;23.77;;;;;;;26.98;69.03;101168.44;4780849;29;20069;-77
2023/10/10 12:07:18;;;;;;;43.90;23.02;;;;;;;26.99;69.53;101165.28;4787683;29;20062;-77
2023/10/10 12:09:48;;;;;;;51.00;21.48;;;;;;;27.21;69.10;101174.78;4802415;29;20105;-77
2023/10/10 12:12:18;;;;;;;47.15;23.90;;;;;;;27.44;68.15;101167.44;4790307;29;20069;-77
2023/10/10 12:14:50;;;;;;;47.03;22.70;;;;;;;27.39;68.11;101167.78;4804355;29;20066;-77
2023/10/10 12:17:21;;;;;;;45.97;24.55;;;;;;;27.26;66.56;101167.22;4786394;29;20074;-77
2023/10/10 12:19:50;;;;;;;43.47;24.17;;;;;;;27.49;66.01;101159.50;4771558;29;20057;-77
2023/10/10 12:22:18;;;;;;;41.88;22.17;;;;;;;27.57;66.72;101151.94;4774490;29;20046;-77
2023/10/10 12:24:52;;;;;;;44.05;22.15;;;;;;;27.39;65.35;101164.97;4799409;29;20070;-77
2023/10/10 12:27:28;;;;;;;41.97;22.38;;;;;;;27.38;65.80;101158.56;4817820;29;20046;-77
2023/10/10 12:29:57;;;;;;;45.95;22.38;;;;;;;27.24;65.05;101148.72;4830493;29;20063;-77
2023/10/10 12:32:26;;;;;;;44.35;21.73;;;;;;;27.29;65.75;101155.22;4819184;29;20047;-77
2023/10/10 12:34:59;;;;;;;48.15;22.50;;;;;;;27.42;64.96;101141.72;4828862;29;20516;-76
2023/10/10 12:37:36;;;;;;;44.58;23.17;;;;;;;27.67;64.32;101153.31;4835566;29;20054;-77
2023/10/10 12:40:09;;;;;;;42.55;21.25;;;;;;;27.56;63.53;101139.06;4835572;29;20054;-76
2023/10/10 12:42:38;;;;;;;41.88;21.38;;;;;;;27.56;64.66;101133.47;4836345;29;20078;-77
2023/10/10 12:45:08;;;;;;;40.65;20.98;;;;;;;27.55;63.35;101134.66;4817577;29;20054;-77
2023/10/10 12:47:36;;;;;;;42.15;20.45;;;;;;;27.66;63.45;101134.00;4827337;29;20054;-77
2023/10/10 12:50:06;;;;;;;41.30;19.98;;;;;;;27.71;61.75;101137.25;4828236;29;20232;-76
2023/10/10 12:52:35;;;;;;;39.45;20.08;;;;;;;27.57;62.67;101137.88;4827497;29;20051;-77
2023/10/10 12:55:09;;;;;;;44.85;21.27;;;;;;;27.67;62.47;101135.63;4811996;29;20069;-76
2023/10/10 12:57:39;;;;;;;38.00;19.63;;;;;;;27.56;63.41;101133.47;4829050;29;20043;-76
2023/10/10 13:00:33;;;;;;;38.00;20.08;;;;;;;27.54;63.29;101119.00;4827438;29;20109;-76
2023/10/10 13:03:01;;;;;;;;;;;;;;;27.64;62.26;101131.56;4828018;29;20050;-79
2023/10/10 13:05:30;;;;;;;35.22;19.23;;;;;;;27.56;62.73;101122.22;4828944;29;19951;-77
2023/10/10 13:07:59;;;;;;;33.60;18.33;;;;;;;27.76;62.83;101128.47;4826116;29;20055;-79
2023/10/10 13:10:30;;;;;;;35.65;18.90;;;;;;;27.50;62.99;101121.75;4827255;29;20034;-76
2023/10/10 13:13:02;;;;;;;49.10;20.27;;;;;;;27.23;63.64;101112.63;4827186;29;20050;-78
2023/10/10 13:15:46;;;;;;;38.00;19.25;;;;;;;27.01;63.69;101122.75;4828263;29;20414;-80
2023/10/10 13:18:22;;;;;;;40.85;20.13;;;;;;;26.87;64.73;101123.34;4811435;29;20506;-77
2023/10/10 13:20:51;;;;;;;42.55;19.55;;;;;;;26.64;65.37;101115.81;4827606;29;20054;-79
2023/10/10 13:23:21;;;;;;;38.90;19.70;;;;;;;26.48;66.51;101102.75;4811431;29;20073;-79
2023/10/10 13:25:50;;;;;;;36.53;19.40;;;;;;;26.27;66.57;101104.03;4827586;29;20063;-79
2023/10/10 13:28:20;;;;;;;44.17;19.90;;;;;;;26.37;68.19;101096.16;4826074;29;20058;-78
2023/10/10 13:30:49;;;;;;;39.00;18.27;;;;;;;26.34;66.78;101108.16;4827981;29;20069;-81
2023/10/10 13:33:20;;;;;;;37.00;17.08;;;;;;;26.30;66.98;101106.06;4827534;29;20062;-80
2023/10/10 13:35:49;;;;;;;36.50;19.13;;;;;;;26.23;67.68;101103.16;4827936;29;20059;-77
2023/10/10 13:38:17;;;;;;;43.83;20.08;;;;;;;26.23;67.61;101097.56;4827453;29;20038;-78
2023/10/10 13:40:48;;;;;;;36.00;18.00;;;;;;;26.26;67.58;101098.78;4827935;29;20058;-78
2023/10/10 13:43:17;;;;;;;36.10;19.73;;;;;;;26.22;67.47;101101.50;4827179;29;20065;-78
2023/10/10 13:45:51;;;;;;;37.28;18.23;;;;;;;26.29;66.97;101100.84;4828301;29;20066;-78
2023/10/10 13:48:23;;;;;;;32.05;16.85;;;;;;;26.24;65.65;101104.78;4826812;29;20141;-78
2023/10/10 13:50:51;;;;;;;36.28;18.40;;;;;;;26.16;67.30;101097.41;4826983;29;20104;-78
2023/10/10 13:53:20;;;;;;;34.53;18.60;;;;;;;26.18;67.49;101097.84;4828764;29;20037;-78
2023/10/10 13:55:50;;;;;;;32.22;16.75;;;;;;;26.17;66.38;101096.22;4812955;29;20809;-78
2023/10/10 13:58:19;;;;;;;30.58;16.50;;;;;;;26.06;66.59;101081.22;4827751;29;20061;-78
2023/10/10 14:00:55;;;;;;;35.85;17.33;;;;;;;26.07;67.38;101086.44;4812568;29;20062;-78
2023/10/10 14:03:35;;;;;;;37.22;16.25;;;;;;;26.02;66.79;101087.59;4827376;29;20054;-78
2023/10/10 14:06:04;;;;;;;36.60;17.20;;;;;;;26.05;64.95;101093.63;4827621;29;20065;-77
2023/10/10 14:08:32;;;;;;;29.33;15.27;;;;;;;26.03;65.72;101091.19;4826775;29;20071;-79
2023/10/10 14:11:01;;;;;;;30.83;15.65;;;;;;;25.99;66.00;101088.31;4827229;29;20062;-77
2023/10/10 14:13:32;;;;;;;31.50;15.43;;;;;;;25.92;66.43;101084.56;4809654;29;20051;-77
2023/10/10 14:16:05;;;;;;;30.40;16.52;;;;;;;25.93;68.44;101095.41;4825302;29;20050;-78
2023/10/10 14:18:42;;;;;;;32.23;16.10;;;;;;;25.97;68.68;101090.69;4826211;29;20069;-78
2023/10/10 14:21:12;;;;;;;33.70;17.17;;;;;;;25.92;69.91;101092.97;4815219;29;20038;-79
2023/10/10 14:23:41;;;;;;;30.95;16.98;;;;;;;25.79;70.04;101084.75;4827861;29;20062;-79